Time;durP1;ratioP1;P1;durP2;ratioP2;P2;SDS_P1;SDS_P2;PMS_P1;PMS_P2;Temp;Humidity;BMP_temperature;BMP_pressure;BME280_temperature;BME280_humidity;BME280_pressure;Samples;Min_cycle;Max_cycle;Signal;HPM_P1;HPM_P2
2023/08/30 00:01:57;;;;;;;5.97;2.10;;;;;;;10.14;100.00;99967.72;4997423;28;20494;-93
2023/08/30 00:04:22;;;;;;;5.97;2.33;;;;;;;10.16;100.00;99963.31;5009477;28;20061;-92
2023/08/30 00:06:48;;;;;;;9.63;1.90;;;;;;;10.14;100.00;99962.56;4998141;28;20105;-92
2023/08/30 00:09:13;;;;;;;5.80;1.88;;;;;;;10.15;100.00;99964.22;4998289;28;20030;-92
2023/08/30 00:11:39;;;;;;;9.30;2.10;;;;;;;10.11;100.00;99959.38;4998490;28;20018;-92
2023/08/30 00:14:06;;;;;;;7.00;1.92;;;;;;;9.94;100.00;99958.66;4997844;28;20034;-91
2023/08/30 00:16:33;;;;;;;9.20;2.38;;;;;;;9.86;100.00;99960.91;4998872;28;20077;-91
2023/08/30 00:18:59;;;;;;;7.35;2.20;;;;;;;9.72;100.00;99969.47;5007293;28;20033;-91
2023/08/30 00:21:25;;;;;;;7.18;2.10;;;;;;;9.84;100.00;99955.84;5018084;28;20048;-91
2023/08/30 00:23:51;;;;;;;9.90;2.30;;;;;;;9.88;100.00;99958.25;5018082;28;20060;-92
2023/08/30 00:26:16;;;;;;;5.75;2.03;;;;;;;9.77;100.00;99951.97;5016817;28;20107;-92
2023/08/30 00:28:41;;;;;;;10.88;2.80;;;;;;;9.86;100.00;99942.84;5001642;28;20464;-91
2023/08/30 00:31:07;;;;;;;8.77;2.42;;;;;;;9.79;100.00;99944.16;5012297;28;20038;-93
2023/08/30 00:33:32;;;;;;;5.05;2.10;;;;;;;9.80;100.00;99945.81;4997246;28;20447;-92
2023/08/30 00:36:00;;;;;;;8.27;2.40;;;;;;;9.79;100.00;99934.69;4997382;28;20215;-94
2023/08/30 00:38:28;;;;;;;7.25;2.15;;;;;;;9.67;100.00;99935.44;4997002;28;20504;-94
2023/08/30 00:40:53;;;;;;;7.72;2.53;;;;;;;9.63;100.00;99919.34;4997255;28;20022;-91
2023/08/30 00:43:20;;;;;;;9.00;1.98;;;;;;;9.62;100.00;99929.75;4999756;28;20022;-92
2023/08/30 00:45:47;;;;;;;5.13;1.90;;;;;;;9.52;100.00;99923.50;4997685;28;20030;-91
2023/08/30 00:48:14;;;;;;;8.85;1.95;;;;;;;9.69;100.00;99917.31;4998326;28;20038;-91
2023/08/30 00:50:40;;;;;;;8.07;2.53;;;;;;;9.59;100.00;99923.03;4998007;28;20088;-93
2023/08/30 00:53:07;;;;;;;10.43;2.20;;;;;;;9.54;100.00;99916.50;4996191;28;20109;-93
2023/08/30 00:55:34;;;;;;;6.80;2.30;;;;;;;9.86;100.00;99914.50;4995011;28;20034;-91
2023/08/30 00:58:01;;;;;;;8.40;2.58;;;;;;;9.59;100.00;99907.56;4993703;28;20388;-93
2023/08/30 01:00:28;;;;;;;6.53;2.13;;;;;;;9.59;100.00;99907.56;4994307;28;20027;-93
2023/08/30 01:02:55;;;;;;;5.55;2.10;;;;;;;9.56;100.00;99910.34;4994018;28;20484;-93
2023/08/30 01:05:20;;;;;;;7.28;2.35;;;;;;;9.54;100.00;99917.34;4993737;28;20026;-93
2023/08/30 01:07:46;;;;;;;13.98;2.25;;;;;;;9.70;100.00;99909.47;4994963;28;20549;-92
2023/08/30 01:10:11;;;;;;;6.97;3.10;;;;;;;9.65;100.00;99916.66;4993858;28;20026;-93
2023/08/30 01:12:42;;;;;;;6.85;2.00;;;;;;;9.47;100.00;99917.81;4993669;28;20563;-92
2023/08/30 01:15:26;;;;;;;10.27;2.37;;;;;;;9.42;100.00;99913.75;4992525;28;20849;-93
2023/08/30 01:17:54;;;;;;;10.25;2.45;;;;;;;9.41;100.00;99908.69;4995378;28;20560;-96
2023/08/30 01:20:24;;;;;;;8.95;2.85;;;;;;;9.41;100.00;99904.38;4994653;28;20092;-92
2023/08/30 01:23:02;;;;;;;6.80;2.08;;;;;;;9.56;100.00;99906.91;4994714;28;20392;-92
2023/08/30 01:25:47;;;;;;;6.53;2.10;;;;;;;9.58;100.00;99905.06;4993584;28;20033;-92
2023/08/30 01:28:15;;;;;;;7.05;2.17;;;;;;;9.58;100.00;99898.19;4994688;28;20030;-91
2023/08/30 01:30:43;;;;;;;8.32;2.22;;;;;;;9.50;100.00;99900.41;4991829;28;20088;-91
2023/08/30 01:33:09;;;;;;;10.25;1.90;;;;;;;9.46;100.00;99891.22;4994283;28;20153;-92
2023/08/30 01:35:36;;;;;;;4.93;2.38;;;;;;;9.35;100.00;99894.44;4994358;28;20025;-91
2023/08/30 01:38:04;;;;;;;6.00;2.13;;;;;;;9.25;100.00;99898.50;4994125;28;20417;-92
2023/08/30 01:40:34;;;;;;;9.60;2.40;;;;;;;9.46;100.00;99895.53;4994174;28;20026;-91
2023/08/30 01:43:01;;;;;;;7.18;2.50;;;;;;;9.48;100.00;99889.38;4994205;28;20496;-91
2023/08/30 01:45:28;;;;;;;10.13;2.20;;;;;;;9.30;100.00;99891.31;4993024;28;20042;-92
2023/08/30 01:47:55;;;;;;;5.00;2.45;;;;;;;9.23;100.00;99890.03;4993879;28;20109;-91
2023/08/30 01:50:21;;;;;;;6.68;2.20;;;;;;;9.20;100.00;99882.50;4994110;28;20113;-91
2023/08/30 01:52:48;;;;;;;9.18;2.80;;;;;;;9.14;100.00;99875.16;4992775;28;20050;-91
2023/08/30 01:55:15;;;;;;;6.07;2.28;;;;;;;9.20;100.00;99879.94;4993969;28;20026;-91
2023/08/30 01:57:40;;;;;;;4.30;1.70;;;;;;;9.15;100.00;99877.63;4994109;28;20062;-92
2023/08/30 02:00:06;;;;;;;8.68;2.60;;;;;;;9.13;100.00;99883.81;4992792;28;20119;-91
2023/08/30 02:02:33;;;;;;;4.30;2.05;;;;;;;9.07;100.00;99879.84;4992537;28;20097;-91
2023/08/30 02:04:59;;;;;;;4.95;2.53;;;;;;;9.13;100.00;99883.81;4991357;28;20026;-92
2023/08/30 02:07:52;;;;;;;8.20;2.30;;;;;;;9.21;100.00;99879.81;4994046;28;20026;-92
2023/08/30 02:10:24;;;;;;;7.97;3.10;;;;;;;9.21;100.00;99877.25;4992462;28;20066;-92
2023/08/30 02:12:53;;;;;;;4.90;2.30;;;;;;;9.19;100.00;99878.25;4990934;28;20088;-92
2023/08/30 02:15:20;;;;;;;5.85;2.40;;;;;;;9.22;100.00;99885.81;4994009;28;20021;-92
2023/08/30 02:17:47;;;;;;;5.53;2.08;;;;;;;9.40;100.00;99881.28;4993721;28;20045;-92
2023/08/30 02:20:13;;;;;;;7.93;2.60;;;;;;;9.48;100.00;99880.81;4993611;28;20018;-92
2023/08/30 02:22:38;;;;;;;7.30;2.38;;;;;;;9.60;100.00;99887.78;4992261;28;20380;-91
2023/08/30 02:25:04;;;;;;;5.32;2.22;;;;;;;9.55;100.00;99879.50;4991955;28;20041;-91
2023/08/30 02:27:33;;;;;;;9.95;2.45;;;;;;;9.61;100.00;99871.41;4992329;28;20528;-92
2023/08/30 02:29:59;;;;;;;7.90;2.38;;;;;;;9.57;100.00;99868.19;4993007;28;20058;-92
2023/08/30 02:32:24;;;;;;;9.57;2.42;;;;;;;9.62;100.00;99865.31;4993476;28;20073;-91
2023/08/30 02:34:51;;;;;;;10.60;2.72;;;;;;;9.66;100.00;99871.94;4993407;28;20369;-91
2023/08/30 02:37:17;;;;;;;11.10;3.05;;;;;;;10.04;100.00;99866.09;4993354;28;20022;-91
2023/08/30 02:39:42;;;;;;;11.05;2.70;;;;;;;9.91;100.00;99870.41;4992160;28;20045;-91
2023/08/30 02:42:07;;;;;;;7.15;2.40;;;;;;;9.91;100.00;99866.06;4993143;28;20495;-91
2023/08/30 02:44:33;;;;;;;10.05;2.28;;;;;;;9.93;100.00;99878.88;4992158;28;20022;-92
2023/08/30 02:46:58;;;;;;;6.45;2.67;;;;;;;10.04;100.00;99882.38;4991815;28;20030;-91
2023/08/30 02:49:23;;;;;;;5.43;1.90;;;;;;;9.98;100.00;99879.41;4993189;28;20060;-91
2023/08/30 02:51:49;;;;;;;6.20;2.28;;;;;;;9.95;100.00;99884.72;4992759;28;20468;-91
2023/08/30 02:54:14;;;;;;;8.43;2.60;;;;;;;9.97;100.00;99875.16;4990575;28;20473;-92
2023/08/30 02:56:43;;;;;;;8.20;2.97;;;;;;;9.91;100.00;99878.13;4993173;28;20416;-92
2023/08/30 02:59:09;;;;;;;9.27;2.60;;;;;;;9.93;100.00;99879.69;4991758;28;20036;-92
2023/08/30 03:01:34;;;;;;;5.47;2.53;;;;;;;9.97;100.00;99885.47;4993105;28;20034;-92
2023/08/30 03:04:00;;;;;;;6.40;2.30;;;;;;;10.08;100.00;99883.84;4992840;28;20057;-92
2023/08/30 03:06:25;;;;;;;10.50;2.90;;;;;;;10.09;100.00;99882.09;4993121;28;20038;-91
2023/08/30 03:08:50;;;;;;;7.03;2.80;;;;;;;10.08;100.00;99878.69;4991075;28;20509;-92
2023/08/30 03:11:16;;;;;;;9.80;2.75;;;;;;;10.13;100.00;99883.56;4990592;28;20488;-91
2023/08/30 03:13:41;;;;;;;7.53;2.70;;;;;;;10.15;100.00;99878.31;4992654;28;20026;-91
2023/08/30 03:16:16;;;;;;;4.15;2.58;;;;;;;10.20;100.00;99879.66;4992433;28;20027;-91
2023/08/30 03:18:42;;;;;;;9.77;3.10;;;;;;;10.26;100.00;99875.84;4992851;28;20030;-92
2023/08/30 03:21:08;;;;;;;4.85;2.30;;;;;;;10.25;100.00;99869.88;4991049;28;20034;-92
2023/08/30 03:23:35;;;;;;;7.35;2.45;;;;;;;10.25;100.00;99856.97;4992443;28;20137;-92
2023/08/30 03:26:10;;;;;;;7.45;2.22;;;;;;;10.32;100.00;99864.34;4991122;28;20038;-90
2023/08/30 03:28:36;;;;;;;7.38;2.50;;;;;;;10.38;100.00;99862.19;4992925;28;20022;-92
2023/08/30 03:31:02;;;;;;;10.55;2.55;;;;;;;10.28;100.00;99861.97;4992356;28;20037;-91
2023/08/30 03:33:27;;;;;;;7.30;2.50;;;;;;;10.33;100.00;99864.25;4992690;28;20038;-90
2023/08/30 03:35:52;;;;;;;13.48;2.40;;;;;;;10.32;100.00;99860.03;4992340;28;20511;-90
2023/08/30 03:38:18;;;;;;;9.45;2.67;;;;;;;10.28;100.00;99861.97;4991127;28;20393;-91
2023/08/30 03:40:44;;;;;;;6.20;3.22;;;;;;;10.25;100.00;99864.72;4990994;28;20053;-90
2023/08/30 03:43:09;;;;;;;8.90;2.63;;;;;;;10.24;100.00;99857.06;4991182;28;20484;-91
2023/08/30 03:45:36;;;;;;;11.23;2.92;;;;;;;10.28;100.00;99863.72;4991390;28;20019;-91
2023/08/30 03:48:02;;;;;;;6.05;3.03;;;;;;;10.17;100.00;99866.97;4992790;28;20022;-91
2023/08/30 03:50:28;;;;;;;11.15;2.75;;;;;;;10.20;100.00;99856.44;4992005;28;20037;-90
2023/08/30 03:52:53;;;;;;;6.40;2.58;;;;;;;10.19;100.00;99862.56;4991025;28;20384;-91
2023/08/30 03:55:18;;;;;;;5.70;1.80;;;;;;;10.17;100.00;99851.50;5004658;28;20053;-91
2023/08/30 03:57:44;;;;;;;7.72;2.47;;;;;;;10.18;100.00;99855.72;4992158;28;20089;-91
2023/08/30 04:00:10;;;;;;;8.40;3.70;;;;;;;10.22;100.00;99849.44;4990724;28;20085;-90
2023/08/30 04:02:36;;;;;;;8.10;2.58;;;;;;;10.21;100.00;99858.09;4991009;28;20030;-91
2023/08/30 04:05:01;;;;;;;9.55;2.38;;;;;;;10.21;100.00;99863.25;4990974;28;20404;-90
2023/08/30 04:07:26;;;;;;;6.72;2.22;;;;;;;10.00;100.00;99862.09;4992179;28;20424;-92
2023/08/30 04:09:52;;;;;;;7.70;2.22;;;;;;;9.96;100.00;99858.88;4990607;28;20034;-91
2023/08/30 04:12:17;;;;;;;7.63;2.33;;;;;;;9.98;100.00;99858.78;4991680;28;20026;-90
2023/08/30 04:14:42;;;;;;;5.28;1.80;;;;;;;9.96;100.00;99864.00;4992218;28;20022;-90
2023/08/30 04:17:08;;;;;;;7.43;2.67;;;;;;;9.95;100.00;99857.22;4990984;28;20108;-90
2023/08/30 04:19:33;;;;;;;4.07;1.85;;;;;;;9.74;100.00;99864.56;4992072;28;20022;-92
2023/08/30 04:21:58;;;;;;;8.93;1.98;;;;;;;9.74;100.00;99864.56;4991988;28;20027;-92
2023/08/30 04:24:24;;;;;;;7.72;2.20;;;;;;;9.84;100.00;99855.31;4990665;28;20030;-91
2023/08/30 04:26:51;;;;;;;6.30;2.08;;;;;;;9.89;100.00;99859.34;4990005;28;20602;-93
2023/08/30 04:29:17;;;;;;;7.88;2.30;;;;;;;9.76;100.00;99862.72;4993171;28;20378;-91
2023/08/30 04:31:43;;;;;;;6.25;1.83;;;;;;;9.73;100.00;99857.75;4994284;28;20153;-91
2023/08/30 04:34:09;;;;;;;4.40;1.80;;;;;;;9.89;100.00;99861.94;4995239;28;20058;-91
2023/08/30 04:36:34;;;;;;;5.80;2.17;;;;;;;9.74;100.00;99866.31;4995567;28;20014;-93
2023/08/30 04:38:59;;;;;;;6.18;1.90;;;;;;;9.89;100.00;99867.09;4994374;28;20503;-91
2023/08/30 04:41:25;;;;;;;9.23;1.92;;;;;;;9.77;100.00;99868.69;4993629;28;20476;-93
2023/08/30 04:43:50;;;;;;;9.05;1.80;;;;;;;9.79;100.00;99872.81;4995194;28;20033;-90
2023/08/30 04:46:15;;;;;;;9.43;2.22;;;;;;;9.72;100.00;99881.84;4995366;28;20102;-90
2023/08/30 04:48:41;;;;;;;6.85;2.00;;;;;;;9.74;100.00;99882.59;4993776;28;20035;-91
2023/08/30 04:51:06;;;;;;;6.22;2.53;;;;;;;9.70;100.00;99877.72;4995108;28;20131;-91
2023/08/30 04:53:31;;;;;;;4.57;1.95;;;;;;;9.68;100.00;99880.41;4995374;28;20410;-90
2023/08/30 04:55:57;;;;;;;5.72;2.38;;;;;;;9.60;100.00;99878.28;4992903;28;20073;-91
2023/08/30 04:58:22;;;;;;;7.75;1.92;;;;;;;9.61;100.00;99879.16;4993557;28;20030;-91
2023/08/30 05:00:48;;;;;;;8.15;2.70;;;;;;;9.65;100.00;99876.25;4995138;28;20030;-90
2023/08/30 05:03:13;;;;;;;10.23;2.60;;;;;;;9.76;100.00;99874.78;4995037;28;20557;-93
2023/08/30 05:05:38;;;;;;;4.88;1.73;;;;;;;9.79;100.00;99872.81;4995136;28;20061;-91
2023/08/30 05:08:04;;;;;;;7.95;2.15;;;;;;;9.94;100.00;99877.94;4994948;28;20412;-91
2023/08/30 05:10:29;;;;;;;9.80;2.33;;;;;;;9.91;100.00;99872.97;4992766;28;20488;-90
2023/08/30 05:12:55;;;;;;;7.18;2.38;;;;;;;9.96;100.00;99878.66;4992928;28;20107;-91
2023/08/30 05:15:21;;;;;;;4.00;1.92;;;;;;;9.90;100.00;99877.31;4993077;28;20389;-91
2023/08/30 05:17:47;;;;;;;7.82;2.45;;;;;;;9.95;100.00;99871.84;4993437;28;20061;-91
2023/08/30 05:20:12;;;;;;;9.95;2.33;;;;;;;10.07;100.00;99882.22;4994802;28;20065;-91
2023/08/30 05:22:38;;;;;;;10.32;2.38;;;;;;;10.04;100.00;99879.00;4994933;28;20389;-91
2023/08/30 05:25:04;;;;;;;3.25;1.60;;;;;;;9.97;100.00;99875.16;4993593;28;20081;-91
2023/08/30 05:27:29;;;;;;;8.20;2.30;;;;;;;10.13;100.00;99886.13;4993500;28;20026;-91
2023/08/30 05:29:58;;;;;;;8.30;2.20;;;;;;;10.39;100.00;99881.09;4993585;28;20393;-91
2023/08/30 05:32:23;;;;;;;6.85;2.35;;;;;;;10.24;100.00;99873.38;4993183;28;20033;-91
2023/08/30 05:34:48;;;;;;;10.07;2.28;;;;;;;10.17;100.00;99882.44;4992915;28;20030;-91
2023/08/30 05:37:14;;;;;;;8.27;2.50;;;;;;;10.31;100.00;99883.31;4994814;28;20061;-91
2023/08/30 05:39:39;;;;;;;6.90;2.88;;;;;;;10.30;100.00;99876.53;4991226;28;20026;-94
2023/08/30 05:42:05;;;;;;;6.40;2.05;;;;;;;10.24;100.00;99873.38;4992104;28;20038;-93
2023/08/30 05:44:30;;;;;;;8.25;2.47;;;;;;;10.30;100.00;99876.53;4993378;28;20499;-93
2023/08/30 05:46:55;;;;;;;8.68;2.63;;;;;;;10.27;100.00;99870.59;4993074;28;20133;-94
2023/08/30 05:49:21;;;;;;;4.97;2.13;;;;;;;10.31;100.00;99881.56;4992740;28;20030;-92
2023/08/30 05:51:47;;;;;;;7.20;2.35;;;;;;;10.32;100.00;99877.25;4992779;28;20052;-92
2023/08/30 05:54:13;;;;;;;8.75;2.40;;;;;;;10.61;100.00;99876.16;4994562;28;20046;-93
2023/08/30 05:56:38;;;;;;;8.90;1.98;;;;;;;10.52;100.00;99881.09;4992649;28;20058;-92
2023/08/30 05:59:04;;;;;;;4.80;2.30;;;;;;;10.58;100.00;99881.50;4993021;28;20054;-92
2023/08/30 06:01:29;;;;;;;7.85;3.35;;;;;;;10.55;100.00;99876.56;4992655;28;20025;-91
2023/08/30 06:03:55;;;;;;;9.90;2.40;;;;;;;10.55;100.00;99873.97;4993082;28;20372;-93
2023/08/30 06:06:20;;;;;;;12.25;2.47;;;;;;;10.62;100.00;99877.78;4993215;28;20479;-93
2023/08/30 06:08:46;;;;;;;7.65;2.30;;;;;;;10.67;100.00;99880.06;4992977;28;20021;-92
2023/08/30 06:11:11;;;;;;;6.47;2.20;;;;;;;10.76;100.00;99881.22;4991235;28;20069;-92
2023/08/30 06:13:36;;;;;;;7.63;2.95;;;;;;;10.74;100.00;99888.25;4992020;28;20406;-93
2023/08/30 06:16:02;;;;;;;7.30;2.80;;;;;;;10.77;100.00;99888.03;4992319;28;20033;-93
2023/08/30 06:18:31;;;;;;;12.57;2.45;;;;;;;10.79;100.00;99888.75;4992810;28;20022;-93
2023/08/30 06:20:57;;;;;;;6.00;2.40;;;;;;;10.95;100.00;99886.81;4992909;28;20461;-94
2023/08/30 06:23:22;;;;;;;7.97;1.90;;;;;;;11.00;100.00;99889.91;4992107;28;20061;-93
2023/08/30 06:25:56;;;;;;;5.10;1.70;;;;;;;11.07;100.00;99892.84;4992553;28;20026;-92
2023/08/30 06:28:22;;;;;;;5.32;1.70;;;;;;;11.26;100.00;99897.59;4991875;28;20018;-94
2023/08/30 06:30:47;;;;;;;7.95;2.03;;;;;;;11.37;100.00;99900.28;4991533;28;20031;-93
2023/08/30 06:33:13;;;;;;;9.63;2.20;;;;;;;11.32;100.00;99903.19;4992511;28;20030;-93
2023/08/30 06:35:39;;;;;;;6.85;1.88;;;;;;;11.38;100.00;99901.91;4992513;28;20094;-94
2023/08/30 06:38:05;;;;;;;6.43;2.10;;;;;;;11.47;100.00;99903.88;4991269;28;20030;-93
2023/08/30 06:40:30;;;;;;;7.38;2.15;;;;;;;11.70;100.00;99893.66;4989266;28;20034;-93
2023/08/30 06:42:56;;;;;;;4.47;1.70;;;;;;;11.61;100.00;99889.13;4992167;28;20472;-92
2023/08/30 06:45:22;;;;;;;6.70;1.85;;;;;;;11.80;100.00;99892.06;4989372;28;20025;-92
2023/08/30 06:47:49;;;;;;;6.75;2.00;;;;;;;11.88;100.00;99896.75;4992353;28;20022;-93
2023/08/30 06:50:15;;;;;;;10.82;2.45;;;;;;;11.91;100.00;99888.78;4992357;28;20030;-93
2023/08/30 06:52:40;;;;;;;4.32;1.75;;;;;;;11.95;100.00;99896.19;4991439;28;20018;-94
2023/08/30 06:55:06;;;;;;;8.77;2.42;;;;;;;11.99;100.00;99894.19;4992011;28;20106;-95
2023/08/30 06:57:31;;;;;;;2.17;1.10;;;;;;;12.16;100.00;99898.16;4991476;28;20022;-95
2023/08/30 07:00:07;;;;;;;6.93;1.70;;;;;;;12.10;100.00;99901.22;4994991;28;20084;-96
2023/08/30 07:02:34;;;;;;;7.53;1.77;;;;;;;12.14;100.00;99900.03;4997843;28;20484;-94
2023/08/30 07:05:00;;;;;;;4.70;1.58;;;;;;;12.20;100.00;99899.59;4996144;28;20392;-95
2023/08/30 07:07:25;;;;;;;7.55;1.83;;;;;;;12.33;100.00;99905.50;4988014;28;20014;-95
2023/08/30 07:09:51;;;;;;;6.85;1.58;;;;;;;12.30;100.00;99908.34;4996335;28;20022;-95
2023/08/30 07:12:16;;;;;;;6.10;2.95;;;;;;;12.37;100.00;99906.94;4991401;28;20056;-93
2023/08/30 07:14:41;;;;;;;8.20;1.75;;;;;;;12.38;100.00;99902.59;4989379;28;20412;-94
2023/08/30 07:17:07;;;;;;;8.13;1.95;;;;;;;12.39;100.00;99905.06;4991290;28;20025;-93
2023/08/30 07:19:32;;;;;;;3.83;1.35;;;;;;;12.39;100.00;99905.06;4992819;28;20481;-94
2023/08/30 07:21:58;;;;;;;7.38;2.60;;;;;;;12.51;100.00;99908.53;4997179;28;20023;-94
2023/08/30 07:24:23;;;;;;;7.80;2.88;;;;;;;12.60;100.00;99901.81;5002385;28;20022;-94
2023/08/30 07:26:48;;;;;;;9.27;2.47;;;;;;;12.66;100.00;99906.56;4991252;28;20046;-95
2023/08/30 07:29:14;;;;;;;6.63;2.15;;;;;;;12.78;100.00;99913.41;4994410;28;20041;-95
2023/08/30 07:31:41;;;;;;;6.15;1.70;;;;;;;12.85;100.00;99911.19;4992490;28;20415;-94
2023/08/30 07:34:07;;;;;;;9.07;1.42;;;;;;;12.89;100.00;99904.00;4993997;28;20136;-93
2023/08/30 07:36:33;;;;;;;6.70;2.00;;;;;;;12.91;100.00;99907.31;4999559;28;20029;-93
2023/08/30 07:38:58;;;;;;;8.60;2.63;;;;;;;12.98;100.00;99911.09;4995690;28;20030;-94
2023/08/30 07:41:23;;;;;;;9.23;2.15;;;;;;;12.99;100.00;99913.53;4994930;28;20025;-94
2023/08/30 07:43:49;;;;;;;8.57;1.83;;;;;;;13.06;100.00;99908.72;4999636;28;20578;-93
2023/08/30 07:46:14;;;;;;;5.18;2.05;;;;;;;13.05;100.00;99914.84;4993538;28;20465;-93
2023/08/30 07:48:40;;;;;;;14.23;3.10;;;;;;;13.10;100.00;99924.88;4993732;28;20033;-93
2023/08/30 07:51:05;;;;;;;6.55;1.77;;;;;;;13.20;100.00;99929.22;5000509;28;20484;-92
2023/08/30 07:53:30;;;;;;;6.32;2.05;;;;;;;13.23;100.00;99915.22;4993016;28;20084;-94
2023/08/30 07:55:56;;;;;;;5.75;1.88;;;;;;;13.36;100.00;99920.28;4998114;28;20564;-94
2023/08/30 07:58:21;;;;;;;6.90;1.45;;;;;;;13.47;100.00;99922.88;4995405;28;20022;-94
2023/08/30 08:00:51;;;;;;;5.75;2.00;;;;;;;13.59;100.00;99921.94;4991817;28;20030;-92
2023/08/30 08:03:16;;;;;;;7.03;1.88;;;;;;;13.73;100.00;99920.00;4995532;28;20073;-93
2023/08/30 08:05:42;;;;;;;7.75;1.75;;;;;;;13.78;100.00;99920.50;4999452;28;20018;-92
2023/08/30 08:08:07;;;;;;;11.73;1.77;;;;;;;14.00;100.00;99924.81;5004141;28;20026;-93
2023/08/30 08:10:36;;;;;;;6.95;1.50;;;;;;;14.20;100.00;99915.41;5001715;28;20058;-91
2023/08/30 08:13:01;;;;;;;5.85;1.83;;;;;;;14.43;100.00;99921.31;5001984;28;20085;-92
2023/08/30 08:15:29;;;;;;;6.88;1.73;;;;;;;14.51;100.00;99924.94;5005743;28;20030;-92
2023/08/30 08:17:54;;;;;;;8.93;1.88;;;;;;;14.61;100.00;99922.44;4999050;28;20026;-93
2023/08/30 08:20:19;;;;;;;7.10;1.17;;;;;;;14.76;100.00;99928.13;5002067;28;20026;-93
2023/08/30 08:22:45;;;;;;;9.27;1.75;;;;;;;14.89;100.00;99922.72;4998413;28;20073;-91
2023/08/30 08:25:11;;;;;;;6.20;1.63;;;;;;;14.97;100.00;99920.31;4999157;28;20025;-90
2023/08/30 08:27:36;;;;;;;9.20;1.90;;;;;;;15.24;100.00;99927.56;4997448;28;20036;-90
2023/08/30 08:30:03;;;;;;;3.72;1.42;;;;;;;15.39;100.00;99921.06;4995802;28;20034;-90
2023/08/30 08:32:30;;;;;;;3.97;1.30;;;;;;;15.57;100.00;99926.44;4999060;28;20108;-90
2023/08/30 08:34:56;;;;;;;8.68;1.45;;;;;;;15.92;100.00;99921.75;4999429;28;20037;-89
2023/08/30 08:37:21;;;;;;;7.68;1.45;;;;;;;16.36;100.00;99933.44;5004484;28;20029;-90
2023/08/30 08:39:49;;;;;;;7.15;1.30;;;;;;;16.94;96.66;99929.09;4994811;28;20532;-91
2023/08/30 08:42:18;;;;;;;8.07;1.38;;;;;;;17.11;90.00;99925.75;4992829;28;20022;-90
2023/08/30 08:44:46;;;;;;;3.83;1.20;;;;;;;17.39;88.07;99924.00;4990209;28;20036;-93
2023/08/30 08:47:11;;;;;;;5.97;1.52;;;;;;;17.39;86.77;99929.22;5000638;28;20057;-93
2023/08/30 08:49:36;;;;;;;10.98;1.92;;;;;;;17.98;85.19;99928.91;4996943;28;20496;-92
2023/08/30 08:52:03;;;;;;;6.40;1.38;;;;;;;17.88;82.55;99923.75;4999425;28;20026;-93
2023/08/30 08:54:29;;;;;;;7.53;1.63;;;;;;;17.64;83.64;99924.28;4996746;28;20034;-95
2023/08/30 08:56:55;;;;;;;3.90;1.50;;;;;;;17.76;83.60;99925.72;4996387;28;20022;-92
2023/08/30 08:59:21;;;;;;;5.70;1.10;;;;;;;17.71;83.09;99923.53;5000844;28;20031;-94
2023/08/30 09:01:48;;;;;;;10.43;1.70;;;;;;;17.63;84.72;99931.28;4995031;28;20536;-93
2023/08/30 09:04:13;;;;;;;4.05;1.10;;;;;;;17.36;87.81;99933.88;5000184;28;20373;-92
2023/08/30 09:06:45;;;;;;;5.88;1.50;;;;;;;17.47;82.25;99931.09;4994971;28;20033;-95
2023/08/30 09:09:11;;;;;;;4.65;1.10;;;;;;;17.51;80.33;99933.28;4994933;28;20026;-94
2023/08/30 09:11:37;;;;;;;7.50;1.23;;;;;;;17.31;79.65;99936.91;4998482;28;20034;-93
2023/08/30 09:14:02;;;;;;;4.75;1.10;;;;;;;17.62;77.56;99924.41;4994114;28;20398;-94
2023/08/30 09:16:28;;;;;;;3.45;1.27;;;;;;;18.76;75.08;99934.31;5001054;28;20022;-93
2023/08/30 09:19:00;;;;;;;5.47;1.30;;;;;;;18.29;71.36;99932.78;4997733;28;20060;-93
2023/08/30 09:21:26;;;;;;;5.72;1.00;;;;;;;18.92;70.16;99933.56;4992821;28;20030;-93
2023/08/30 09:24:06;;;;;;;7.00;1.38;;;;;;;18.51;72.56;99933.28;4991173;28;20026;-93
2023/08/30 09:26:32;;;;;;;4.30;0.77;;;;;;;18.77;68.63;99935.94;4990402;28;20041;-93
2023/08/30 09:29:05;;;;;;;6.88;0.98;;;;;;;18.74;69.07;99936.22;4992345;28;20033;-94
2023/08/30 09:31:36;;;;;;;6.25;1.23;;;;;;;18.47;71.73;99929.34;4992011;28;20068;-93
2023/08/30 09:34:02;;;;;;;5.38;1.15;;;;;;;19.18;67.12;99921.28;4989856;28;20030;-94
2023/08/30 09:36:38;;;;;;;8.52;0.90;;;;;;;19.44;65.82;99923.06;4990776;28;20026;-94
2023/08/30 09:39:15;;;;;;;2.05;0.50;;;;;;;19.50;62.50;99927.63;4996661;28;20415;-96
2023/08/30 09:41:42;;;;;;;4.15;0.60;;;;;;;19.94;62.26;99929.25;4992843;28;20030;-94
2023/08/30 09:44:11;;;;;;;3.13;0.80;;;;;;;20.38;60.93;99931.59;4994036;28;20110;-96
2023/08/30 09:46:49;;;;;;;6.50;1.00;;;;;;;20.00;60.19;99928.63;4993477;28;20038;-95
2023/08/30 09:49:15;;;;;;;3.85;0.80;;;;;;;20.40;60.16;99929.63;4992183;28;20026;-95
2023/08/30 09:51:42;;;;;;;2.83;0.82;;;;;;;20.16;57.54;99933.06;4992559;28;20494;-94
2023/08/30 09:54:19;;;;;;;7.40;0.90;;;;;;;20.77;58.50;99925.69;4993868;28;20022;-93
2023/08/30 09:56:46;;;;;;;8.13;1.00;;;;;;;21.06;56.06;99931.19;4991615;28;20480;-93
2023/08/30 09:59:14;;;;;;;2.90;0.60;;;;;;;21.29;55.90;99928.66;4994011;28;20044;-96
2023/08/30 10:01:41;;;;;;;5.68;1.38;;;;;;;20.89;55.92;99925.16;4992595;28;20041;-95
2023/08/30 10:04:10;;;;;;;6.45;1.15;;;;;;;21.04;56.65;99929.72;4991939;28;20030;-92
2023/08/30 10:06:37;;;;;;;6.32;0.73;;;;;;;21.21;56.17;99928.66;4992036;28;20779;-93
2023/08/30 10:09:04;;;;;;;2.45;0.60;;;;;;;21.60;53.93;99922.63;4992072;28;20034;-92
2023/08/30 10:11:33;;;;;;;4.35;1.75;;;;;;;21.66;56.05;99926.38;4992607;28;20030;-96
2023/08/30 10:13:59;;;;;;;3.25;0.90;;;;;;;21.98;53.46;99931.44;4989504;28;20014;-96
2023/08/30 10:16:27;;;;;;;2.00;0.60;;;;;;;22.41;52.31;99923.06;4991941;28;20038;-96
2023/08/30 10:18:59;;;;;;;2.95;0.65;;;;;;;21.76;52.05;99926.97;4992833;28;20014;-96
2023/08/30 10:21:26;;;;;;;2.80;0.90;;;;;;;22.11;53.41;99927.41;4993178;28;20054;-95
2023/08/30 10:23:55;;;;;;;7.75;0.80;;;;;;;21.99;53.60;99922.53;4992806;28;20030;-95
2023/08/30 10:26:27;;;;;;;3.03;0.82;;;;;;;22.15;50.27;99929.50;4986046;28;20093;-95
2023/08/30 10:28:55;;;;;;;4.50;0.80;;;;;;;22.06;51.98;99922.66;4991716;28;20396;-96
2023/08/30 10:31:20;;;;;;;3.15;0.93;;;;;;;21.30;52.80;99922.41;4991398;28;20117;-95
2023/08/30 10:33:50;;;;;;;5.05;0.70;;;;;;;21.05;55.84;99926.13;4991707;28;20129;-94
2023/08/30 10:36:25;;;;;;;9.57;1.27;;;;;;;20.57;56.83;99930.47;4992860;28;20376;-93
2023/08/30 10:38:52;;;;;;;2.78;1.02;;;;;;;20.00;57.67;99929.44;4992384;28;20085;-93
2023/08/30 10:41:25;;;;;;;2.85;0.82;;;;;;;20.23;58.27;99926.19;4990943;28;20031;-95
2023/08/30 10:44:01;;;;;;;3.85;1.33;;;;;;;20.47;57.08;99926.19;4992600;28;20022;-94
2023/08/30 10:46:34;;;;;;;3.83;0.95;;;;;;;21.03;56.12;99920.22;4992378;28;20033;-94
2023/08/30 10:49:11;;;;;;;5.10;0.65;;;;;;;20.84;56.99;99927.47;4992283;28;20027;-95
2023/08/30 10:51:41;;;;;;;2.35;0.88;;;;;;;20.88;55.73;99928.78;4993433;28;20033;-94
2023/08/30 10:54:17;;;;;;;6.38;1.73;;;;;;;21.26;55.87;99928.16;4993543;28;20026;-94
2023/08/30 10:56:51;;;;;;;4.97;0.90;;;;;;;22.09;54.97;99935.44;4992752;28;20400;-95
2023/08/30 10:59:21;;;;;;;2.28;0.80;;;;;;;22.51;52.50;99925.47;4992184;28;20033;-94
2023/08/30 11:01:49;;;;;;;4.88;0.88;;;;;;;22.34;52.13;99933.50;4992279;28;20037;-95
2023/08/30 11:04:15;;;;;;;2.85;0.40;;;;;;;22.74;50.42;99936.75;4993314;28;20022;-94
2023/08/30 11:06:43;;;;;;;5.35;0.80;;;;;;;22.38;50.42;99926.06;4993292;28;20030;-96
2023/08/30 11:09:09;;;;;;;4.28;0.80;;;;;;;22.18;51.13;99931.78;4991821;28;20109;-94
2023/08/30 11:11:36;;;;;;;3.47;0.70;;;;;;;21.89;50.78;99929.84;4993113;28;20495;-94
2023/08/30 11:14:08;;;;;;;2.35;0.52;;;;;;;21.70;51.80;99927.66;4993070;28;20023;-94
2023/08/30 11:16:34;;;;;;;4.82;0.88;;;;;;;21.37;52.98;99922.56;4992096;28;20034;-95
2023/08/30 11:19:03;;;;;;;2.00;0.70;;;;;;;21.80;51.50;99923.84;4991879;28;20027;-94
2023/08/30 11:21:33;;;;;;;5.45;0.80;;;;;;;21.67;52.55;99925.38;4991970;28;20408;-94
2023/08/30 11:23:59;;;;;;;3.67;0.80;;;;;;;21.12;53.03;99921.84;4992747;28;20026;-94
2023/08/30 11:26:25;;;;;;;4.15;0.70;;;;;;;21.26;53.05;99915.84;4992963;28;20109;-94
2023/08/30 11:28:52;;;;;;;5.32;0.73;;;;;;;21.23;53.29;99910.94;4993251;28;20034;-94